Time;durP1;ratioP1;P1;durP2;ratioP2;P2;SDS_P1;SDS_P2;PMS_P1;PMS_P2;Temp;Humidity;BMP_temperature;BMP_pressure;BME280_temperature;BME280_humidity;BME280_pressure;Samples;Min_cycle;Max_cycle;Signal;HPM_P1;HPM_P2
2021/08/12 19:56:48;;;;;;;26.65;16.42;;;;;;;16.59;54.66;99136.41;5126458;27;20169;-66
2021/08/12 19:59:15;;;;;;;27.17;16.13;;;;;;;16.64;55.71;99136.28;5126473;28;20035;-70
2021/08/12 20:01:40;;;;;;;26.73;17.25;;;;;;;16.79;56.14;99135.81;5126198;28;20023;-69
2021/08/12 20:04:06;;;;;;;24.40;16.40;;;;;;;16.98;56.32;99136.72;5126898;28;20537;-68
2021/08/12 20:06:31;;;;;;;26.08;16.00;;;;;;;17.14;56.36;99135.13;5126386;28;21355;-69
2021/08/12 20:08:57;;;;;;;24.05;14.73;;;;;;;17.32;56.34;99133.19;5127141;28;20038;-70
2021/08/12 20:11:24;;;;;;;21.20;13.75;;;;;;;17.47;56.13;99134.66;5126099;28;20386;-70
2021/08/12 20:13:49;;;;;;;24.83;14.00;;;;;;;17.63;56.00;99139.72;5127294;28;20023;-70
2021/08/12 20:16:14;;;;;;;18.58;12.70;;;;;;;17.75;56.10;99139.06;5125857;28;20092;-69
2021/08/12 20:18:40;;;;;;;22.08;12.60;;;;;;;17.88;55.84;99131.69;5125998;28;20019;-71
2021/08/12 20:21:05;;;;;;;19.65;12.00;;;;;;;17.97;55.97;99135.28;5125436;28;20051;-70
2021/08/12 20:23:31;;;;;;;18.88;11.85;;;;;;;18.04;55.72;99121.75;5127751;27;20080;-69
2021/08/12 20:25:57;;;;;;;16.98;11.70;;;;;;;18.14;56.02;99121.38;5125748;27;20107;-68
2021/08/12 20:28:22;;;;;;;20.85;11.73;;;;;;;18.23;55.80;99123.31;5107142;28;20549;-68
2021/08/12 20:30:47;;;;;;;18.80;11.00;;;;;;;18.28;55.76;99120.38;5127799;27;20058;-69
2021/08/12 20:33:13;;;;;;;18.63;12.25;;;;;;;18.35;55.51;99126.22;5125850;28;20034;-69
2021/08/12 20:35:38;;;;;;;20.42;13.10;;;;;;;18.40;55.51;99120.50;5108126;28;20343;-70
2021/08/12 20:38:04;;;;;;;23.55;13.18;;;;;;;18.41;55.34;99122.13;5125752;28;20035;-69
2021/08/12 20:40:29;;;;;;;18.05;11.65;;;;;;;18.45;55.30;99127.81;5125927;28;20458;-70
2021/08/12 20:42:55;;;;;;;18.92;11.80;;;;;;;18.50;55.54;99129.63;5107211;28;20028;-70
2021/08/12 20:45:21;;;;;;;17.55;11.88;;;;;;;18.53;55.39;99140.06;5126147;27;20035;-69
2021/08/12 20:47:46;;;;;;;16.80;10.52;;;;;;;18.55;55.32;99129.41;5125797;28;20024;-69
2021/08/12 20:50:12;;;;;;;16.77;9.45;;;;;;;18.55;55.37;99127.47;5125562;28;20039;-71
2021/08/12 20:52:38;;;;;;;16.52;10.40;;;;;;;18.56;55.31;99119.94;5125526;28;20107;-70
2021/08/12 20:55:05;;;;;;;14.63;9.93;;;;;;;18.57;55.35;99116.00;5125878;28;20092;-69
2021/08/12 20:57:30;;;;;;;16.25;10.70;;;;;;;18.57;55.09;99113.22;5125218;28;20106;-70
2021/08/12 20:59:55;;;;;;;20.05;13.88;;;;;;;18.54;55.16;99111.13;5125465;28;20023;-70
2021/08/12 21:02:21;;;;;;;23.33;14.77;;;;;;;18.53;55.03;99113.09;5124989;28;20027;-70
2021/08/12 21:04:46;;;;;;;24.05;14.85;;;;;;;18.53;55.02;99112.28;5125936;28;20076;-69
2021/08/12 21:07:11;;;;;;;23.40;15.80;;;;;;;18.54;55.02;99119.47;5116627;28;20413;-69
2021/08/12 21:09:37;;;;;;;24.92;16.55;;;;;;;18.52;54.75;99108.69;5112560;28;20027;-70
2021/08/12 21:12:03;;;;;;;28.52;17.50;;;;;;;18.52;54.82;99113.44;5092844;28;20026;-70
2021/08/12 21:14:29;;;;;;;26.20;17.25;;;;;;;18.53;54.87;99109.50;5111178;28;20023;-70
2021/08/12 21:16:55;;;;;;;27.80;18.00;;;;;;;18.54;54.80;99111.94;5111544;27;20106;-69
2021/08/12 21:19:21;;;;;;;31.73;18.02;;;;;;;18.54;54.62;99111.13;5110375;27;20107;-69
2021/08/12 21:21:46;;;;;;;25.70;16.23;;;;;;;18.54;55.09;99109.16;5110500;27;20104;-70
2021/08/12 21:24:12;;;;;;;28.70;16.50;;;;;;;18.56;55.14;99119.94;5111319;28;20028;-70
2021/08/12 21:26:37;;;;;;;28.00;16.08;;;;;;;18.55;55.06;99109.97;5112339;27;20046;-70
2021/08/12 21:29:03;;;;;;;26.75;17.10;;;;;;;18.52;55.00;99122.56;5111081;27;20015;-70
2021/08/12 21:31:29;;;;;;;29.38;15.95;;;;;;;18.53;54.74;99117.84;5110960;28;20454;-70
2021/08/12 21:33:55;;;;;;;29.38;16.58;;;;;;;18.51;55.03;99114.59;5091179;28;20016;-70
2021/08/12 21:36:20;;;;;;;23.55;15.18;;;;;;;18.51;54.87;99115.38;5110385;28;20050;-69
2021/08/12 21:38:45;;;;;;;21.17;14.55;;;;;;;18.50;55.00;99112.94;5111492;28;20106;-70
2021/08/12 21:41:12;;;;;;;19.45;12.80;;;;;;;18.49;55.00;99119.66;5086128;28;20091;-72
2021/08/12 21:43:39;;;;;;;21.63;13.52;;;;;;;18.43;54.93;99124.56;5102774;28;20114;-71
2021/08/12 21:46:08;;;;;;;21.38;13.43;;;;;;;18.42;54.87;99120.16;5103750;28;20022;-70
2021/08/12 21:48:34;;;;;;;20.20;12.33;;;;;;;18.39;54.71;99112.47;5104350;28;20099;-70
2021/08/12 21:51:01;;;;;;;17.90;12.90;;;;;;;18.36;54.85;99116.75;5104440;28;20335;-70
2021/08/12 21:53:26;;;;;;;20.90;12.32;;;;;;;18.38;54.72;99110.84;5085329;28;20054;-69
2021/08/12 21:55:54;;;;;;;23.67;12.25;;;;;;;18.32;54.68;99118.56;5086356;28;20079;-69
2021/08/12 21:58:22;;;;;;;17.17;12.15;;;;;;;18.28;54.95;99120.38;5103533;28;20035;-70
2021/08/12 22:00:47;;;;;;;17.15;11.55;;;;;;;18.25;54.91;99121.03;5103868;28;20106;-70
2021/08/12 22:03:13;;;;;;;18.63;11.80;;;;;;;18.23;54.74;99121.38;5103313;28;20061;-70
2021/08/12 22:05:38;;;;;;;19.33;11.68;;;;;;;18.22;54.75;99125.28;5103474;28;20451;-70
2021/08/12 22:08:04;;;;;;;17.67;11.30;;;;;;;18.23;55.08;99117.78;5104163;28;20020;-70
2021/08/12 22:10:31;;;;;;;18.75;12.57;;;;;;;18.21;54.69;99123.66;5104162;28;20084;-70
2021/08/12 22:12:57;;;;;;;18.40;12.60;;;;;;;18.21;54.69;99120.06;5102676;28;20088;-70
2021/08/12 22:15:24;;;;;;;18.65;12.35;;;;;;;18.21;54.65;99120.06;5103316;28;20028;-70
2021/08/12 22:17:51;;;;;;;18.20;12.52;;;;;;;18.19;54.88;99123.19;5103344;28;20347;-71
2021/08/12 22:20:16;;;;;;;19.25;12.40;;;;;;;18.15;54.69;99125.78;5102354;28;20041;-70
2021/08/12 22:22:57;;;;;;;18.00;12.68;;;;;;;18.15;54.74;99130.53;5101533;28;20028;-70
2021/08/12 22:25:24;;;;;;;18.55;12.15;;;;;;;18.10;54.76;99125.16;5101698;28;20031;-70
2021/08/12 22:27:50;;;;;;;18.85;11.90;;;;;;;18.08;54.95;99136.59;5103312;28;20086;-70
2021/08/12 22:30:18;;;;;;;15.25;11.27;;;;;;;18.06;54.97;99132.50;5103166;28;20027;-69
2021/08/12 22:32:44;;;;;;;16.70;11.13;;;;;;;18.05;54.87;99130.88;5101994;28;20027;-70
2021/08/12 22:35:11;;;;;;;18.25;11.73;;;;;;;18.04;54.97;99141.19;5102871;28;20023;-69
2021/08/12 22:37:37;;;;;;;17.80;11.38;;;;;;;17.99;55.11;99133.81;5103747;28;20024;-69
2021/08/12 22:40:04;;;;;;;18.70;11.82;;;;;;;17.99;54.96;99133.81;5103255;28;20039;-69
2021/08/12 22:42:29;;;;;;;15.90;11.60;;;;;;;17.97;54.78;99135.28;5102737;28;20387;-69
2021/08/12 22:44:54;;;;;;;18.02;11.68;;;;;;;17.95;54.80;99134.78;5102521;28;20031;-70
2021/08/12 22:47:20;;;;;;;16.17;11.15;;;;;;;17.92;54.91;99133.50;5103200;28;20031;-70
2021/08/12 22:49:45;;;;;;;15.77;11.55;;;;;;;17.92;54.97;99141.00;5103072;28;20053;-69
2021/08/12 22:52:11;;;;;;;17.58;12.48;;;;;;;17.90;55.04;99137.72;5083178;28;20028;-69
2021/08/12 22:54:36;;;;;;;16.50;12.13;;;;;;;17.87;55.02;99130.91;5103109;28;20468;-69
2021/08/12 22:57:01;;;;;;;19.75;12.75;;;;;;;17.85;55.09;99138.72;5102686;28;20034;-69
2021/08/12 22:59:27;;;;;;;17.38;12.07;;;;;;;17.84;54.99;99137.09;5103297;28;20028;-69
2021/08/12 23:01:53;;;;;;;17.00;12.30;;;;;;;17.82;55.32;99137.41;5101523;28;20364;-69
2021/08/12 23:04:18;;;;;;;18.88;12.68;;;;;;;17.77;55.34;99131.22;5102953;28;20110;-69
2021/08/12 23:06:43;;;;;;;17.45;13.18;;;;;;;17.72;55.06;99146.09;5101802;28;20494;-69
2021/08/12 23:09:09;;;;;;;19.92;13.02;;;;;;;17.71;55.59;99136.94;5103041;28;20019;-69
2021/08/12 23:11:34;;;;;;;22.50;13.45;;;;;;;17.71;55.46;99144.47;5102032;28;20034;-69
2021/08/12 23:14:00;;;;;;;20.02;13.45;;;;;;;17.71;55.59;99136.13;5102931;28;20030;-69
2021/08/12 23:16:25;;;;;;;20.80;13.25;;;;;;;17.71;55.43;99144.47;5102380;28;20027;-69
2021/08/12 23:18:50;;;;;;;19.67;13.88;;;;;;;17.72;55.81;99143.31;5103002;28;20029;-68
2021/08/12 23:21:16;;;;;;;16.90;12.55;;;;;;;17.70;55.57;99140.84;5101872;28;20118;-69
2021/08/12 23:23:41;;;;;;;18.77;13.13;;;;;;;17.67;56.08;99143.47;5102319;28;20094;-69
2021/08/12 23:26:08;;;;;;;19.55;13.55;;;;;;;17.62;56.12;99143.63;5102740;28;20467;-69
2021/08/12 23:28:36;;;;;;;19.52;13.20;;;;;;;17.59;56.14;99141.53;5103372;28;20023;-70
2021/08/12 23:31:02;;;;;;;19.08;13.68;;;;;;;17.55;56.10;99139.41;5102688;28;20020;-69
2021/08/12 23:33:28;;;;;;;17.83;13.20;;;;;;;17.53;55.89;99133.38;5101727;28;20097;-69
2021/08/12 23:35:53;;;;;;;20.48;13.85;;;;;;;17.51;56.20;99138.41;5102322;28;20027;-70
2021/08/12 23:38:19;;;;;;;18.05;13.00;;;;;;;17.51;56.17;99140.38;5083167;28;20051;-69
2021/08/12 23:40:45;;;;;;;18.05;13.27;;;;;;;17.49;56.21;99128.81;5102405;28;20042;-70
2021/08/12 23:43:10;;;;;;;18.67;13.35;;;;;;;17.46;56.39;99133.03;5101589;28;20016;-70
2021/08/12 23:45:36;;;;;;;21.05;13.57;;;;;;;17.46;56.55;99133.03;5102729;28;20077;-69
2021/08/12 23:48:01;;;;;;;20.33;14.38;;;;;;;17.43;56.38;99122.59;5102292;28;20096;-69
2021/08/12 23:50:27;;;;;;;19.83;13.95;;;;;;;17.41;56.34;99138.72;5083631;28;20062;-69
2021/08/12 23:52:52;;;;;;;16.38;13.38;;;;;;;17.40;56.38;99137.09;5101267;28;20023;-69
2021/08/12 23:55:18;;;;;;;18.88;13.05;;;;;;;17.40;56.47;99137.09;5101936;28;20406;-69
2021/08/12 23:57:43;;;;;;;18.23;12.95;;;;;;;17.36;56.73;99139.72;5101189;28;20028;-69
